ETH901 EGLL-DGAA
Flight info
| Callsign | ETH901 |
|---|---|
| Flight time | N/A |
| Altitude | 35000 |
| Route | MODMI M185 MID L151 SITET UN859 SOPIL DCT BALAN DCT EVPOK DCT NARAK DCT GAI DCT LOMRA/N0480F370 DCT ROCAN DCT PUMAL DCT XEPLA DCT BCN DCT GARBI DCT LARPA DCT TOLSO DCT LISAS DCT MJV N859 MOGIL UB31 ZEM/N0485F360 UZ333 KAHIL UB726 GHA/N0484F370 UA615 TMS UA604 EREBO/N0489F380 DCT MIGNI DCT ABALA DCT IPUTA DCT TATAT DCT KILMO DCT LITEX LITEX1B |
| Aircraft | B77W/H-SDE1E2E3FGHIJ2J3J4J5M1RWXY/LB1D1 |
Departure
| Time | N/A |
|---|---|
| Airport | London Heathrow Airport (EGLL) |
Arrival
| Time | 2026-05-08 11:28 |
|---|---|
| Airport | Kotoka International Airport (DGAA) |
| Time | Latitude | Longitude | Altitude | Speed | Heading |
|---|---|---|---|---|---|
| 2026-05-08 10:36 | 28.16111 | 4.68505 | 34951 ft | 504 kts | 174° |
| 2026-05-08 10:37 | 27.05576 | 4.92590 | 34976 ft | 497 kts | 174° |
| 2026-05-08 10:37 | 25.95990 | 5.18139 | 35148 ft | 500 kts | 174° |
| 2026-05-08 10:37 | 25.41864 | 5.31761 | 34948 ft | 497 kts | 174° |
| 2026-05-08 10:38 | 25.05762 | 5.41141 | 35195 ft | 499 kts | 174° |
| 2026-05-08 10:38 | 24.51395 | 5.55820 | 35074 ft | 496 kts | 174° |
| 2026-05-08 10:38 | 23.80322 | 5.76055 | 35137 ft | 501 kts | 174° |
| 2026-05-08 10:39 | 22.72545 | 6.06549 | 35198 ft | 506 kts | 174° |
| 2026-05-08 10:39 | 21.63172 | 6.35683 | 35158 ft | 507 kts | 174° |
| 2026-05-08 10:39 | 21.08816 | 6.43326 | 35183 ft | 488 kts | 185° |
| 2026-05-08 10:40 | 20.71283 | 6.44314 | 35192 ft | 509 kts | 186° |
| 2026-05-08 10:40 | 20.15973 | 6.41454 | 35025 ft | 489 kts | 193° |
| 2026-05-08 10:40 | 19.63524 | 6.31054 | 35160 ft | 478 kts | 200° |
| 2026-05-08 10:40 | 19.10128 | 6.15623 | 35115 ft | 500 kts | 201° |
| 2026-05-08 10:41 | 18.57353 | 5.99035 | 35004 ft | 504 kts | 201° |
| 2026-05-08 10:41 | 17.52695 | 5.61277 | 34973 ft | 479 kts | 208° |
| 2026-05-08 10:41 | 17.03987 | 5.37185 | 35006 ft | 490 kts | 211° |
| 2026-05-08 10:42 | 16.57211 | 5.09474 | 34945 ft | 483 kts | 214° |
| 2026-05-08 10:42 | 16.51217 | 5.05450 | 35025 ft | 484 kts | 221° |
| 2026-05-08 10:42 | 16.48682 | 5.03153 | 35331 ft | 481 kts | 226° |
| 2026-05-08 10:43 | 16.46305 | 5.00732 | 35758 ft | 476 kts | 228° |
| 2026-05-08 10:43 | 16.43964 | 4.98281 | 35998 ft | 477 kts | 225° |
| 2026-05-08 10:43 | 16.41419 | 4.96044 | 36246 ft | 479 kts | 220° |
| 2026-05-08 10:43 | 16.38649 | 4.94094 | 36537 ft | 481 kts | 214° |
| 2026-05-08 10:44 | 16.35785 | 4.92376 | 36664 ft | 484 kts | 212° |
| 2026-05-08 10:44 | 16.29815 | 4.89087 | 36468 ft | 479 kts | 210° |
| 2026-05-08 10:44 | 16.26889 | 4.87531 | 36138 ft | 477 kts | 210° |
| 2026-05-08 10:45 | 16.23926 | 4.85957 | 36042 ft | 477 kts | 210° |
| 2026-05-08 10:45 | 16.18013 | 4.82813 | 35955 ft | 477 kts | 210° |
| 2026-05-08 10:46 | 16.08911 | 4.77973 | 35949 ft | 481 kts | 210° |
| 2026-05-08 10:46 | 15.61083 | 4.52605 | 35955 ft | 482 kts | 210° |
| 2026-05-08 10:47 | 15.13186 | 4.27335 | 35952 ft | 484 kts | 209° |
| 2026-05-08 10:47 | 14.64894 | 4.01985 | 35919 ft | 489 kts | 209° |
| 2026-05-08 10:48 | 14.16445 | 3.76679 | 35888 ft | 491 kts | 208° |
| 2026-05-08 10:48 | 13.67551 | 3.51205 | 35872 ft | 492 kts | 208° |
| 2026-05-08 10:49 | 13.17758 | 3.27225 | 35869 ft | 492 kts | 205° |
| 2026-05-08 10:49 | 12.67776 | 3.04214 | 35868 ft | 493 kts | 206° |
| 2026-05-08 10:50 | 12.17971 | 2.81321 | 35871 ft | 493 kts | 206° |
| 2026-05-08 10:50 | 11.67958 | 2.58351 | 35903 ft | 492 kts | 205° |
| 2026-05-08 10:51 | 11.17963 | 2.35485 | 35941 ft | 492 kts | 205° |
| 2026-05-08 10:51 | 10.80937 | 2.14536 | 35983 ft | 489 kts | 226° |
| 2026-05-08 10:52 | 10.76543 | 2.09268 | 36007 ft | 489 kts | 231° |
| 2026-05-08 10:52 | 10.72010 | 2.04111 | 36012 ft | 489 kts | 226° |
| 2026-05-08 10:53 | 10.69773 | 2.01932 | 36015 ft | 490 kts | 223° |
| 2026-05-08 10:53 | 10.58610 | 1.92493 | 36023 ft | 491 kts | 219° |
| 2026-05-08 10:54 | 10.37345 | 1.74951 | 36043 ft | 490 kts | 220° |
| 2026-05-08 10:54 | 10.20539 | 1.60913 | 36060 ft | 491 kts | 220° |
| 2026-05-08 10:55 | 10.15249 | 1.56513 | 36065 ft | 492 kts | 220° |
| 2026-05-08 10:55 | 10.09963 | 1.52115 | 36068 ft | 491 kts | 220° |
| 2026-05-08 10:56 | 10.04664 | 1.47708 | 36072 ft | 491 kts | 220° |
| 2026-05-08 10:56 | 9.99868 | 1.43721 | 36074 ft | 491 kts | 220° |
| 2026-05-08 10:57 | 9.94566 | 1.39319 | 36073 ft | 491 kts | 219° |
| 2026-05-08 10:57 | 9.86600 | 1.32678 | 36070 ft | 495 kts | 220° |
| 2026-05-08 10:58 | 9.81315 | 1.28300 | 36088 ft | 493 kts | 219° |
| 2026-05-08 10:58 | 9.76006 | 1.23903 | 36081 ft | 491 kts | 219° |
| 2026-05-08 10:59 | 9.70713 | 1.19512 | 36082 ft | 492 kts | 220° |
| 2026-05-08 10:59 | 9.65405 | 1.15105 | 36081 ft | 493 kts | 219° |
| 2026-05-08 11:00 | 9.60092 | 1.10711 | 36079 ft | 493 kts | 218° |
| 2026-05-08 11:00 | 9.54355 | 1.06932 | 36082 ft | 492 kts | 207° |
| 2026-05-08 11:01 | 9.48163 | 1.04040 | 36079 ft | 492 kts | 203° |
| 2026-05-08 11:01 | 9.41830 | 1.01388 | 36078 ft | 492 kts | 202° |
| 2026-05-08 11:02 | 9.32265 | 0.97520 | 36075 ft | 493 kts | 202° |
| 2026-05-08 11:03 | 9.25898 | 0.94942 | 36072 ft | 493 kts | 202° |
| 2026-05-08 11:03 | 9.19514 | 0.92356 | 36070 ft | 493 kts | 202° |
| 2026-05-08 11:04 | 9.13178 | 0.89790 | 36067 ft | 493 kts | 202° |
| 2026-05-08 11:04 | 9.06805 | 0.87210 | 36064 ft | 493 kts | 202° |
| 2026-05-08 11:05 | 9.00432 | 0.84631 | 36058 ft | 493 kts | 202° |
| 2026-05-08 11:05 | 8.94051 | 0.82054 | 36057 ft | 493 kts | 201° |
| 2026-05-08 11:06 | 8.87573 | 0.79751 | 36054 ft | 493 kts | 198° |
| 2026-05-08 11:06 | 8.81051 | 0.77593 | 36051 ft | 493 kts | 199° |
| 2026-05-08 11:07 | 8.74630 | 0.75144 | 36049 ft | 493 kts | 201° |
| 2026-05-08 11:07 | 8.56415 | 0.67712 | 36041 ft | 493 kts | 202° |
| 2026-05-08 11:08 | 8.30963 | 0.57330 | 36030 ft | 494 kts | 201° |
| 2026-05-08 11:08 | 8.23168 | 0.54154 | 35535 ft | 489 kts | 201° |
| 2026-05-08 11:08 | 8.20023 | 0.52873 | 35054 ft | 487 kts | 201° |
| 2026-05-08 11:09 | 8.16877 | 0.51592 | 34553 ft | 486 kts | 201° |
| 2026-05-08 11:09 | 8.13753 | 0.50319 | 34053 ft | 484 kts | 201° |
| 2026-05-08 11:09 | 8.10639 | 0.49052 | 33552 ft | 481 kts | 201° |
| 2026-05-08 11:09 | 8.07546 | 0.47792 | 33077 ft | 477 kts | 201° |
| 2026-05-08 11:10 | 8.04475 | 0.46568 | 32627 ft | 472 kts | 199° |
| 2026-05-08 11:10 | 8.01409 | 0.45558 | 32349 ft | 467 kts | 197° |
| 2026-05-08 11:10 | 7.98252 | 0.44616 | 32361 ft | 467 kts | 195° |
| 2026-05-08 11:10 | 7.95165 | 0.43752 | 32176 ft | 465 kts | 194° |
| 2026-05-08 11:11 | 7.92048 | 0.42920 | 31702 ft | 462 kts | 194° |
| 2026-05-08 11:11 | 7.88942 | 0.42103 | 31291 ft | 460 kts | 194° |
| 2026-05-08 11:11 | 7.85803 | 0.41276 | 30917 ft | 473 kts | 194° |
| 2026-05-08 11:11 | 7.82587 | 0.40428 | 30542 ft | 482 kts | 194° |
| 2026-05-08 11:12 | 7.79325 | 0.39566 | 30168 ft | 488 kts | 194° |
| 2026-05-08 11:12 | 7.76028 | 0.38697 | 29791 ft | 489 kts | 194° |
| 2026-05-08 11:12 | 7.72744 | 0.37829 | 29415 ft | 486 kts | 194° |
| 2026-05-08 11:12 | 7.69488 | 0.36968 | 28997 ft | 482 kts | 194° |
| 2026-05-08 11:13 | 7.66208 | 0.36102 | 28519 ft | 490 kts | 194° |
| 2026-05-08 11:13 | 7.62885 | 0.35224 | 28042 ft | 499 kts | 193° |
| 2026-05-08 11:13 | 7.59503 | 0.34330 | 27565 ft | 504 kts | 193° |
| 2026-05-08 11:13 | 7.56105 | 0.33434 | 27091 ft | 504 kts | 193° |
| 2026-05-08 11:14 | 7.46354 | 0.30859 | 25710 ft | 492 kts | 193° |
| 2026-05-08 11:14 | 7.33357 | 0.27430 | 24097 ft | 476 kts | 192° |
| 2026-05-08 11:14 | 7.20657 | 0.24081 | 22600 ft | 467 kts | 192° |
| 2026-05-08 11:14 | 7.08214 | 0.20802 | 21098 ft | 457 kts | 192° |
| 2026-05-08 11:15 | 6.96189 | 0.17628 | 19616 ft | 447 kts | 192° |
| 2026-05-08 11:15 | 6.84252 | 0.14490 | 18116 ft | 440 kts | 192° |
| 2026-05-08 11:15 | 6.74303 | 0.11874 | 16654 ft | 394 kts | 192° |
| 2026-05-08 11:15 | 6.71649 | 0.11175 | 16056 ft | 395 kts | 191° |
| 2026-05-08 11:16 | 6.63130 | 0.08934 | 15176 ft | 381 kts | 191° |
| 2026-05-08 11:16 | 6.53060 | 0.06287 | 14031 ft | 366 kts | 189° |
| 2026-05-08 11:16 | 6.43362 | 0.03737 | 12569 ft | 355 kts | 188° |
| 2026-05-08 11:16 | 6.34554 | 0.01426 | 11256 ft | 350 kts | 188° |
| 2026-05-08 11:17 | 6.32205 | 0.00807 | 10912 ft | 348 kts | 189° |
| 2026-05-08 11:17 | 6.29863 | 0.00191 | 10568 ft | 346 kts | 189° |
| 2026-05-08 11:17 | 6.27543 | -0.00419 | 10342 ft | 340 kts | 190° |
| 2026-05-08 11:17 | 6.25319 | -0.01004 | 10273 ft | 328 kts | 191° |
| 2026-05-08 11:18 | 6.23140 | -0.01576 | 10207 ft | 317 kts | 191° |
| 2026-05-08 11:18 | 6.21038 | -0.02129 | 10132 ft | 307 kts | 191° |
| 2026-05-08 11:18 | 6.18999 | -0.02665 | 10066 ft | 299 kts | 191° |
| 2026-05-08 11:18 | 6.17002 | -0.03190 | 9999 ft | 294 kts | 191° |
| 2026-05-08 11:19 | 6.15025 | -0.03709 | 9839 ft | 295 kts | 191° |
| 2026-05-08 11:19 | 6.13036 | -0.04231 | 9532 ft | 295 kts | 191° |
| 2026-05-08 11:19 | 6.11044 | -0.04720 | 9230 ft | 293 kts | 187° |
| 2026-05-08 11:19 | 6.09062 | -0.04929 | 8956 ft | 289 kts | 180° |
| 2026-05-08 11:20 | 6.07041 | -0.04936 | 8582 ft | 290 kts | 176° |
| 2026-05-08 11:20 | 6.05026 | -0.04820 | 8213 ft | 291 kts | 173° |
| 2026-05-08 11:20 | 6.03005 | -0.04619 | 7848 ft | 292 kts | 172° |
| 2026-05-08 11:20 | 6.01002 | -0.04398 | 7478 ft | 285 kts | 172° |
| 2026-05-08 11:21 | 5.99059 | -0.04195 | 7137 ft | 278 kts | 173° |
| 2026-05-08 11:21 | 5.97124 | -0.04001 | 6806 ft | 279 kts | 173° |
| 2026-05-08 11:21 | 5.95181 | -0.03810 | 6466 ft | 280 kts | 174° |
| 2026-05-08 11:21 | 5.93239 | -0.03830 | 6124 ft | 280 kts | 186° |
| 2026-05-08 11:22 | 5.91336 | -0.04237 | 5808 ft | 280 kts | 195° |
| 2026-05-08 11:22 | 5.89500 | -0.04871 | 5172 ft | 284 kts | 200° |
| 2026-05-08 11:22 | 5.87685 | -0.05619 | 4669 ft | 280 kts | 202° |
| 2026-05-08 11:22 | 5.85909 | -0.06373 | 4188 ft | 274 kts | 202° |
| 2026-05-08 11:23 | 5.84188 | -0.07088 | 4040 ft | 262 kts | 202° |
| 2026-05-08 11:23 | 5.82509 | -0.07777 | 3879 ft | 264 kts | 202° |
| 2026-05-08 11:23 | 5.80784 | -0.08481 | 3572 ft | 266 kts | 202° |
| 2026-05-08 11:23 | 5.79094 | -0.09162 | 3413 ft | 257 kts | 202° |
| 2026-05-08 11:24 | 5.77479 | -0.09822 | 3294 ft | 245 kts | 203° |
| 2026-05-08 11:24 | 5.75954 | -0.10446 | 3187 ft | 227 kts | 203° |
| 2026-05-08 11:24 | 5.74541 | -0.11021 | 2913 ft | 211 kts | 203° |
| 2026-05-08 11:24 | 5.73235 | -0.11553 | 2627 ft | 195 kts | 203° |
| 2026-05-08 11:25 | 5.72021 | -0.12046 | 2362 ft | 180 kts | 203° |
| 2026-05-08 11:25 | 5.70911 | -0.12498 | 2140 ft | 164 kts | 202° |
| 2026-05-08 11:25 | 5.69883 | -0.12915 | 1942 ft | 156 kts | 202° |
| 2026-05-08 11:25 | 5.68891 | -0.13319 | 1762 ft | 152 kts | 202° |
| 2026-05-08 11:26 | 5.68244 | -0.13582 | 1602 ft | 151 kts | 201° |
| 2026-05-08 11:26 | 5.67272 | -0.13977 | 1395 ft | 150 kts | 201° |
| 2026-05-08 11:26 | 5.66303 | -0.14371 | 1202 ft | 151 kts | 201° |
| 2026-05-08 11:26 | 5.65003 | -0.14900 | 931 ft | 150 kts | 201° |
| 2026-05-08 11:27 | 5.64046 | -0.15289 | 734 ft | 151 kts | 201° |
| 2026-05-08 11:27 | 5.63388 | -0.15557 | 599 ft | 151 kts | 201° |
| 2026-05-08 11:27 | 5.62106 | -0.16078 | 331 ft | 150 kts | 201° |
| 2026-05-08 11:27 | 5.61455 | -0.16343 | 224 ft | 146 kts | 202° |
| 2026-05-08 11:28 | 5.60592 | -0.16692 | 219 ft | 124 kts | 202° |
| 2026-05-08 11:28 | 5.59900 | -0.16975 | 219 ft | 83 kts | 202° |
| 2026-05-08 11:28 | 5.59487 | -0.17142 | 219 ft | 45 kts | 202° |
| 2026-05-08 11:28 | 5.59249 | -0.17247 | 219 ft | 21 kts | 216° |
| 2026-05-08 11:29 | 5.59184 | -0.17346 | 219 ft | 13 kts | 277° |
| 2026-05-08 11:29 | 5.59212 | -0.17429 | 219 ft | 12 kts | 298° |
| 2026-05-08 11:29 | 5.59284 | -0.17456 | 219 ft | 11 kts | 8° |
| 2026-05-08 11:29 | 5.59357 | -0.17435 | 219 ft | 11 kts | 22° |
| 2026-05-08 11:30 | 5.59423 | -0.17407 | 219 ft | 10 kts | 27° |
| 2026-05-08 11:30 | 5.59483 | -0.17376 | 219 ft | 9 kts | 27° |
| 2026-05-08 11:30 | 5.59540 | -0.17346 | 219 ft | 9 kts | 26° |
| 2026-05-08 11:30 | 5.59596 | -0.17324 | 219 ft | 8 kts | 20° |
| 2026-05-08 11:31 | 5.59625 | -0.17313 | 219 ft | 8 kts | 20° |